sensor_id;sensor_type;location;lat;lon;timestamp;P1;durP1;ratioP1;P2;durP2;ratioP2
26277;SDS011;14000;52.056;8.510;2024-02-23T00:00:03;9.17;;;1.10;;
26277;SDS011;14000;52.056;8.510;2024-02-23T00:02:30;9.80;;;1.33;;
26277;SDS011;14000;52.056;8.510;2024-02-23T00:04:56;7.00;;;1.20;;
26277;SDS011;14000;52.056;8.510;2024-02-23T00:07:22;5.33;;;1.37;;
26277;SDS011;14000;52.056;8.510;2024-02-23T00:09:48;7.27;;;0.97;;
26277;SDS011;14000;52.056;8.510;2024-02-23T00:12:14;6.67;;;1.10;;
26277;SDS011;14000;52.056;8.510;2024-02-23T00:14:39;4.77;;;0.83;;
26277;SDS011;14000;52.056;8.510;2024-02-23T00:17:05;2.93;;;0.77;;
26277;SDS011;14000;52.056;8.510;2024-02-23T00:19:31;4.03;;;0.87;;
26277;SDS011;14000;52.056;8.510;2024-02-23T00:21:57;9.10;;;1.30;;
26277;SDS011;14000;52.056;8.510;2024-02-23T00:24:24;6.20;;;1.00;;
26277;SDS011;14000;52.056;8.510;2024-02-23T00:26:50;4.07;;;0.97;;
26277;SDS011;14000;52.056;8.510;2024-02-23T00:29:16;3.33;;;1.10;;
26277;SDS011;14000;52.056;8.510;2024-02-23T00:31:42;6.57;;;1.13;;
26277;SDS011;14000;52.056;8.510;2024-02-23T00:34:10;4.53;;;1.10;;
26277;SDS011;14000;52.056;8.510;2024-02-23T00:36:38;4.57;;;1.00;;
26277;SDS011;14000;52.056;8.510;2024-02-23T00:39:05;2.83;;;0.97;;
26277;SDS011;14000;52.056;8.510;2024-02-23T00:41:32;6.70;;;1.27;;
26277;SDS011;14000;52.056;8.510;2024-02-23T00:43:58;3.67;;;1.27;;
26277;SDS011;14000;52.056;8.510;2024-02-23T00:46:24;5.40;;;1.30;;
26277;SDS011;14000;52.056;8.510;2024-02-23T00:48:49;5.00;;;1.40;;
26277;SDS011;14000;52.056;8.510;2024-02-23T00:51:15;5.67;;;1.40;;
26277;SDS011;14000;52.056;8.510;2024-02-23T00:53:41;4.10;;;1.20;;
26277;SDS011;14000;52.056;8.510;2024-02-23T00:56:06;3.30;;;1.00;;
26277;SDS011;14000;52.056;8.510;2024-02-23T00:58:32;6.13;;;1.17;;
26277;SDS011;14000;52.056;8.510;2024-02-23T01:00:58;2.30;;;0.90;;
26277;SDS011;14000;52.056;8.510;2024-02-23T01:03:24;3.20;;;1.00;;
26277;SDS011;14000;52.056;8.510;2024-02-23T01:05:50;2.73;;;0.90;;
26277;SDS011;14000;52.056;8.510;2024-02-23T01:08:15;2.77;;;0.97;;
26277;SDS011;14000;52.056;8.510;2024-02-23T01:10:41;2.37;;;1.00;;
26277;SDS011;14000;52.056;8.510;2024-02-23T01:13:07;2.30;;;0.90;;
26277;SDS011;14000;52.056;8.510;2024-02-23T01:15:32;4.07;;;1.00;;
26277;SDS011;14000;52.056;8.510;2024-02-23T01:17:59;2.13;;;0.90;;
26277;SDS011;14000;52.056;8.510;2024-02-23T01:20:24;2.00;;;1.00;;
26277;SDS011;14000;52.056;8.510;2024-02-23T01:22:50;2.60;;;1.00;;
26277;SDS011;14000;52.056;8.510;2024-02-23T01:25:16;2.30;;;0.90;;
26277;SDS011;14000;52.056;8.510;2024-02-23T01:27:41;2.80;;;1.00;;
26277;SDS011;14000;52.056;8.510;2024-02-23T01:30:09;2.20;;;0.83;;
26277;SDS011;14000;52.056;8.510;2024-02-23T01:32:35;1.90;;;0.80;;
26277;SDS011;14000;52.056;8.510;2024-02-23T01:35:03;2.10;;;0.90;;
26277;SDS011;14000;52.056;8.510;2024-02-23T01:37:29;2.70;;;1.00;;
26277;SDS011;14000;52.056;8.510;2024-02-23T01:39:55;4.00;;;1.17;;
26277;SDS011;14000;52.056;8.510;2024-02-23T01:42:21;3.70;;;1.17;;
26277;SDS011;14000;52.056;8.510;2024-02-23T01:44:47;4.87;;;1.57;;
26277;SDS011;14000;52.056;8.510;2024-02-23T01:47:12;4.83;;;1.47;;
26277;SDS011;14000;52.056;8.510;2024-02-23T01:49:38;4.97;;;1.63;;
26277;SDS011;14000;52.056;8.510;2024-02-23T01:52:04;4.13;;;1.40;;
26277;SDS011;14000;52.056;8.510;2024-02-23T01:54:30;5.57;;;1.60;;
26277;SDS011;14000;52.056;8.510;2024-02-23T01:56:56;6.43;;;1.97;;
26277;SDS011;14000;52.056;8.510;2024-02-23T01:59:26;7.50;;;1.80;;
26277;SDS011;14000;52.056;8.510;2024-02-23T02:01:52;6.63;;;1.70;;
26277;SDS011;14000;52.056;8.510;2024-02-23T02:04:18;5.40;;;1.53;;
26277;SDS011;14000;52.056;8.510;2024-02-23T02:06:45;7.30;;;1.80;;
26277;SDS011;14000;52.056;8.510;2024-02-23T02:09:11;6.83;;;1.70;;
26277;SDS011;14000;52.056;8.510;2024-02-23T02:11:46;6.67;;;1.83;;
26277;SDS011;14000;52.056;8.510;2024-02-23T02:14:13;7.60;;;1.73;;
26277;SDS011;14000;52.056;8.510;2024-02-23T02:16:39;7.00;;;1.80;;
26277;SDS011;14000;52.056;8.510;2024-02-23T02:19:05;5.67;;;1.90;;
26277;SDS011;14000;52.056;8.510;2024-02-23T02:21:31;10.50;;;2.00;;
26277;SDS011;14000;52.056;8.510;2024-02-23T02:23:58;7.30;;;1.90;;
26277;SDS011;14000;52.056;8.510;2024-02-23T02:26:23;6.47;;;1.80;;
26277;SDS011;14000;52.056;8.510;2024-02-23T02:28:49;7.67;;;2.20;;
26277;SDS011;14000;52.056;8.510;2024-02-23T02:31:14;5.93;;;1.90;;
26277;SDS011;14000;52.056;8.510;2024-02-23T02:33:40;10.53;;;1.87;;
26277;SDS011;14000;52.056;8.510;2024-02-23T02:36:06;6.90;;;2.10;;
26277;SDS011;14000;52.056;8.510;2024-02-23T02:38:32;7.13;;;2.40;;
26277;SDS011;14000;52.056;8.510;2024-02-23T02:40:58;8.73;;;2.67;;
26277;SDS011;14000;52.056;8.510;2024-02-23T02:43:25;7.67;;;2.50;;
26277;SDS011;14000;52.056;8.510;2024-02-23T02:45:51;7.47;;;2.67;;
26277;SDS011;14000;52.056;8.510;2024-02-23T02:48:17;7.53;;;3.33;;
26277;SDS011;14000;52.056;8.510;2024-02-23T02:50:42;7.47;;;3.10;;
26277;SDS011;14000;52.056;8.510;2024-02-23T02:53:09;9.73;;;3.40;;
26277;SDS011;14000;52.056;8.510;2024-02-23T02:55:35;8.67;;;3.90;;
26277;SDS011;14000;52.056;8.510;2024-02-23T02:58:01;8.63;;;3.33;;
26277;SDS011;14000;52.056;8.510;2024-02-23T03:00:27;9.40;;;3.43;;
26277;SDS011;14000;52.056;8.510;2024-02-23T03:02:53;11.23;;;4.00;;
26277;SDS011;14000;52.056;8.510;2024-02-23T03:05:19;10.37;;;3.60;;
26277;SDS011;14000;52.056;8.510;2024-02-23T03:07:45;8.77;;;2.90;;
26277;SDS011;14000;52.056;8.510;2024-02-23T03:10:10;9.23;;;3.13;;
26277;SDS011;14000;52.056;8.510;2024-02-23T03:12:36;10.30;;;3.33;;
26277;SDS011;14000;52.056;8.510;2024-02-23T03:15:02;11.03;;;3.00;;
26277;SDS011;14000;52.056;8.510;2024-02-23T03:17:28;9.27;;;2.70;;
26277;SDS011;14000;52.056;8.510;2024-02-23T03:19:54;9.83;;;2.50;;
26277;SDS011;14000;52.056;8.510;2024-02-23T03:22:19;12.20;;;2.27;;
26277;SDS011;14000;52.056;8.510;2024-02-23T03:24:45;8.43;;;2.10;;
26277;SDS011;14000;52.056;8.510;2024-02-23T03:27:11;9.37;;;2.20;;
26277;SDS011;14000;52.056;8.510;2024-02-23T03:29:38;10.57;;;2.30;;
26277;SDS011;14000;52.056;8.510;2024-02-23T03:32:03;10.70;;;2.10;;
26277;SDS011;14000;52.056;8.510;2024-02-23T03:34:29;9.60;;;1.97;;
26277;SDS011;14000;52.056;8.510;2024-02-23T03:36:55;11.57;;;2.13;;
26277;SDS011;14000;52.056;8.510;2024-02-23T03:39:21;7.07;;;1.93;;
26277;SDS011;14000;52.056;8.510;2024-02-23T03:41:46;9.93;;;2.20;;
26277;SDS011;14000;52.056;8.510;2024-02-23T03:44:12;6.13;;;2.07;;
26277;SDS011;14000;52.056;8.510;2024-02-23T03:46:37;9.60;;;2.23;;
26277;SDS011;14000;52.056;8.510;2024-02-23T03:49:03;8.77;;;2.50;;
26277;SDS011;14000;52.056;8.510;2024-02-23T03:51:29;10.03;;;2.13;;
26277;SDS011;14000;52.056;8.510;2024-02-23T03:53:55;8.07;;;2.20;;
26277;SDS011;14000;52.056;8.510;2024-02-23T03:56:20;9.30;;;2.20;;
26277;SDS011;14000;52.056;8.510;2024-02-23T03:58:46;8.17;;;2.10;;
26277;SDS011;14000;52.056;8.510;2024-02-23T04:01:12;9.90;;;2.10;;
26277;SDS011;14000;52.056;8.510;2024-02-23T04:03:37;6.90;;;1.90;;
26277;SDS011;14000;52.056;8.510;2024-02-23T04:06:03;9.63;;;2.20;;
26277;SDS011;14000;52.056;8.510;2024-02-23T04:08:29;6.30;;;1.87;;
26277;SDS011;14000;52.056;8.510;2024-02-23T04:10:56;10.67;;;1.90;;
26277;SDS011;14000;52.056;8.510;2024-02-23T04:13:22;8.90;;;1.60;;
26277;SDS011;14000;52.056;8.510;2024-02-23T04:15:48;10.03;;;1.57;;
26277;SDS011;14000;52.056;8.510;2024-02-23T04:18:14;7.77;;;1.40;;
26277;SDS011;14000;52.056;8.510;2024-02-23T04:20:39;7.77;;;1.57;;
26277;SDS011;14000;52.056;8.510;2024-02-23T04:23:05;6.63;;;1.50;;
26277;SDS011;14000;52.056;8.510;2024-02-23T04:25:30;12.23;;;1.70;;
26277;SDS011;14000;52.056;8.510;2024-02-23T04:27:56;9.43;;;1.60;;
26277;SDS011;14000;52.056;8.510;2024-02-23T04:30:22;9.53;;;1.47;;
26277;SDS011;14000;52.056;8.510;2024-02-23T04:32:47;5.87;;;1.40;;
26277;SDS011;14000;52.056;8.510;2024-02-23T04:35:13;10.17;;;1.57;;
26277;SDS011;14000;52.056;8.510;2024-02-23T04:37:39;10.20;;;1.60;;
26277;SDS011;14000;52.056;8.510;2024-02-23T04:40:05;10.73;;;1.70;;
26277;SDS011;14000;52.056;8.510;2024-02-23T04:42:31;9.37;;;1.60;;
26277;SDS011;14000;52.056;8.510;2024-02-23T04:44:57;11.60;;;1.47;;
26277;SDS011;14000;52.056;8.510;2024-02-23T04:47:23;11.07;;;1.60;;
26277;SDS011;14000;52.056;8.510;2024-02-23T04:49:48;6.10;;;1.40;;
26277;SDS011;14000;52.056;8.510;2024-02-23T04:52:14;11.10;;;1.47;;
26277;SDS011;14000;52.056;8.510;2024-02-23T04:54:40;10.27;;;1.53;;
26277;SDS011;14000;52.056;8.510;2024-02-23T04:57:05;11.00;;;1.70;;
26277;SDS011;14000;52.056;8.510;2024-02-23T04:59:31;8.97;;;1.57;;
26277;SDS011;14000;52.056;8.510;2024-02-23T05:01:57;9.83;;;1.50;;
26277;SDS011;14000;52.056;8.510;2024-02-23T05:04:23;12.00;;;2.63;;
26277;SDS011;14000;52.056;8.510;2024-02-23T05:06:48;8.40;;;1.77;;
26277;SDS011;14000;52.056;8.510;2024-02-23T05:09:14;9.80;;;1.70;;
26277;SDS011;14000;52.056;8.510;2024-02-23T05:11:40;10.07;;;1.57;;
26277;SDS011;14000;52.056;8.510;2024-02-23T05:14:05;10.90;;;1.47;;
26277;SDS011;14000;52.056;8.510;2024-02-23T05:16:31;7.57;;;1.53;;
26277;SDS011;14000;52.056;8.510;2024-02-23T05:18:57;9.70;;;1.60;;
26277;SDS011;14000;52.056;8.510;2024-02-23T05:21:23;5.93;;;1.33;;
26277;SDS011;14000;52.056;8.510;2024-02-23T05:23:48;6.03;;;1.40;;
26277;SDS011;14000;52.056;8.510;2024-02-23T05:26:14;9.77;;;1.40;;
26277;SDS011;14000;52.056;8.510;2024-02-23T05:28:40;12.63;;;1.80;;
26277;SDS011;14000;52.056;8.510;2024-02-23T05:31:05;10.33;;;1.80;;
26277;SDS011;14000;52.056;8.510;2024-02-23T05:33:31;9.40;;;1.70;;
26277;SDS011;14000;52.056;8.510;2024-02-23T05:35:57;10.10;;;1.70;;
26277;SDS011;14000;52.056;8.510;2024-02-23T05:38:22;5.53;;;1.47;;
26277;SDS011;14000;52.056;8.510;2024-02-23T05:40:48;7.07;;;1.60;;
26277;SDS011;14000;52.056;8.510;2024-02-23T05:43:14;6.23;;;1.50;;
26277;SDS011;14000;52.056;8.510;2024-02-23T05:45:40;8.60;;;1.60;;
26277;SDS011;14000;52.056;8.510;2024-02-23T05:48:05;7.40;;;1.50;;
26277;SDS011;14000;52.056;8.510;2024-02-23T05:50:32;7.13;;;1.80;;
26277;SDS011;14000;52.056;8.510;2024-02-23T05:52:57;8.13;;;1.90;;
26277;SDS011;14000;52.056;8.510;2024-02-23T05:55:23;10.03;;;1.80;;
26277;SDS011;14000;52.056;8.510;2024-02-23T05:57:49;12.40;;;1.93;;
26277;SDS011;14000;52.056;8.510;2024-02-23T06:00:16;8.70;;;1.80;;
26277;SDS011;14000;52.056;8.510;2024-02-23T06:02:44;9.13;;;2.07;;
26277;SDS011;14000;52.056;8.510;2024-02-23T06:05:10;12.17;;;2.10;;
26277;SDS011;14000;52.056;8.510;2024-02-23T06:07:37;9.13;;;2.20;;
26277;SDS011;14000;52.056;8.510;2024-02-23T06:10:02;11.83;;;2.10;;
26277;SDS011;14000;52.056;8.510;2024-02-23T06:12:28;9.17;;;2.17;;
26277;SDS011;14000;52.056;8.510;2024-02-23T06:14:54;8.97;;;1.90;;
26277;SDS011;14000;52.056;8.510;2024-02-23T06:17:21;8.70;;;1.73;;
26277;SDS011;14000;52.056;8.510;2024-02-23T06:19:48;10.77;;;2.57;;
26277;SDS011;14000;52.056;8.510;2024-02-23T06:22:13;8.03;;;1.70;;
26277;SDS011;14000;52.056;8.510;2024-02-23T06:24:42;8.77;;;1.80;;
26277;SDS011;14000;52.056;8.510;2024-02-23T06:27:07;10.20;;;2.23;;
26277;SDS011;14000;52.056;8.510;2024-02-23T06:29:33;9.50;;;1.73;;
26277;SDS011;14000;52.056;8.510;2024-02-23T06:31:59;10.57;;;1.80;;
26277;SDS011;14000;52.056;8.510;2024-02-23T06:34:26;7.47;;;1.50;;
26277;SDS011;14000;52.056;8.510;2024-02-23T06:36:52;9.20;;;1.60;;
26277;SDS011;14000;52.056;8.510;2024-02-23T06:39:17;8.07;;;1.60;;
26277;SDS011;14000;52.056;8.510;2024-02-23T06:41:45;9.47;;;1.40;;
26277;SDS011;14000;52.056;8.510;2024-02-23T06:44:10;14.73;;;1.83;;
26277;SDS011;14000;52.056;8.510;2024-02-23T06:46:36;8.23;;;1.60;;
26277;SDS011;14000;52.056;8.510;2024-02-23T06:49:02;9.30;;;1.50;;
26277;SDS011;14000;52.056;8.510;2024-02-23T06:51:29;12.10;;;1.60;;
26277;SDS011;14000;52.056;8.510;2024-02-23T06:53:56;8.73;;;1.60;;
26277;SDS011;14000;52.056;8.510;2024-02-23T06:56:22;11.57;;;1.50;;
26277;SDS011;14000;52.056;8.510;2024-02-23T06:58:47;8.87;;;1.50;;
26277;SDS011;14000;52.056;8.510;2024-02-23T07:01:13;11.00;;;1.50;;
26277;SDS011;14000;52.056;8.510;2024-02-23T07:03:39;11.47;;;1.50;;
26277;SDS011;14000;52.056;8.510;2024-02-23T07:06:06;7.60;;;1.40;;
26277;SDS011;14000;52.056;8.510;2024-02-23T07:08:31;10.63;;;2.07;;
26277;SDS011;14000;52.056;8.510;2024-02-23T07:10:57;12.13;;;2.73;;
26277;SDS011;14000;52.056;8.510;2024-02-23T07:13:23;8.50;;;1.80;;
26277;SDS011;14000;52.056;8.510;2024-02-23T07:15:48;9.80;;;1.83;;
26277;SDS011;14000;52.056;8.510;2024-02-23T07:18:14;10.93;;;1.60;;
26277;SDS011;14000;52.056;8.510;2024-02-23T07:20:41;8.93;;;1.40;;
26277;SDS011;14000;52.056;8.510;2024-02-23T07:23:06;9.60;;;1.40;;
26277;SDS011;14000;52.056;8.510;2024-02-23T07:25:32;9.27;;;1.53;;
26277;SDS011;14000;52.056;8.510;2024-02-23T07:27:58;9.20;;;1.27;;
26277;SDS011;14000;52.056;8.510;2024-02-23T07:30:24;10.57;;;1.60;;
26277;SDS011;14000;52.056;8.510;2024-02-23T07:32:49;9.27;;;1.47;;
26277;SDS011;14000;52.056;8.510;2024-02-23T07:35:15;8.47;;;1.40;;
26277;SDS011;14000;52.056;8.510;2024-02-23T07:37:41;8.60;;;1.37;;
26277;SDS011;14000;52.056;8.510;2024-02-23T07:40:06;9.90;;;1.70;;
26277;SDS011;14000;52.056;8.510;2024-02-23T07:42:33;9.63;;;1.60;;
26277;SDS011;14000;52.056;8.510;2024-02-23T07:45:00;13.33;;;1.70;;
26277;SDS011;14000;52.056;8.510;2024-02-23T07:47:29;9.67;;;1.83;;
26277;SDS011;14000;52.056;8.510;2024-02-23T07:49:55;9.67;;;1.30;;
26277;SDS011;14000;52.056;8.510;2024-02-23T07:52:21;9.33;;;1.53;;
26277;SDS011;14000;52.056;8.510;2024-02-23T07:54:49;10.37;;;1.23;;
26277;SDS011;14000;52.056;8.510;2024-02-23T07:57:16;9.27;;;1.70;;
26277;SDS011;14000;52.056;8.510;2024-02-23T07:59:43;4.77;;;1.03;;
26277;SDS011;14000;52.056;8.510;2024-02-23T08:02:08;10.60;;;1.57;;
26277;SDS011;14000;52.056;8.510;2024-02-23T08:04:34;8.10;;;1.10;;
26277;SDS011;14000;52.056;8.510;2024-02-23T08:06:59;6.17;;;1.03;;
26277;SDS011;14000;52.056;8.510;2024-02-23T08:09:25;8.80;;;1.60;;
26277;SDS011;14000;52.056;8.510;2024-02-23T08:11:51;7.73;;;1.20;;
26277;SDS011;14000;52.056;8.510;2024-02-23T08:14:16;4.27;;;0.80;;
26277;SDS011;14000;52.056;8.510;2024-02-23T08:16:42;7.50;;;1.23;;
26277;SDS011;14000;52.056;8.510;2024-02-23T08:19:08;6.70;;;1.10;;
26277;SDS011;14000;52.056;8.510;2024-02-23T08:21:33;8.30;;;1.40;;
26277;SDS011;14000;52.056;8.510;2024-02-23T08:23:59;6.67;;;1.20;;
26277;SDS011;14000;52.056;8.510;2024-02-23T08:26:24;10.70;;;1.30;;
26277;SDS011;14000;52.056;8.510;2024-02-23T08:28:50;10.90;;;1.50;;
26277;SDS011;14000;52.056;8.510;2024-02-23T08:31:16;7.97;;;1.30;;
26277;SDS011;14000;52.056;8.510;2024-02-23T08:33:41;9.47;;;1.20;;
26277;SDS011;14000;52.056;8.510;2024-02-23T08:36:07;5.67;;;1.00;;
26277;SDS011;14000;52.056;8.510;2024-02-23T08:38:33;6.47;;;1.40;;
26277;SDS011;14000;52.056;8.510;2024-02-23T08:40:59;6.57;;;1.47;;
26277;SDS011;14000;52.056;8.510;2024-02-23T08:43:24;6.60;;;1.27;;
26277;SDS011;14000;52.056;8.510;2024-02-23T08:45:50;9.73;;;1.80;;
26277;SDS011;14000;52.056;8.510;2024-02-23T08:48:16;12.03;;;1.90;;
26277;SDS011;14000;52.056;8.510;2024-02-23T08:50:43;9.13;;;1.37;;
26277;SDS011;14000;52.056;8.510;2024-02-23T08:53:08;10.73;;;1.63;;
26277;SDS011;14000;52.056;8.510;2024-02-23T08:55:34;10.10;;;1.53;;
26277;SDS011;14000;52.056;8.510;2024-02-23T08:57:59;8.93;;;1.53;;
26277;SDS011;14000;52.056;8.510;2024-02-23T09:00:25;9.63;;;1.80;;
26277;SDS011;14000;52.056;8.510;2024-02-23T09:02:51;6.90;;;1.23;;
26277;SDS011;14000;52.056;8.510;2024-02-23T09:05:16;7.87;;;1.20;;
26277;SDS011;14000;52.056;8.510;2024-02-23T09:07:42;6.97;;;1.27;;
26277;SDS011;14000;52.056;8.510;2024-02-23T09:10:08;8.53;;;1.13;;
26277;SDS011;14000;52.056;8.510;2024-02-23T09:12:34;6.83;;;1.13;;
26277;SDS011;14000;52.056;8.510;2024-02-23T09:14:59;10.63;;;1.40;;
26277;SDS011;14000;52.056;8.510;2024-02-23T09:17:25;6.23;;;1.10;;
26277;SDS011;14000;52.056;8.510;2024-02-23T09:19:51;7.20;;;1.10;;
26277;SDS011;14000;52.056;8.510;2024-02-23T09:22:16;9.27;;;1.20;;
26277;SDS011;14000;52.056;8.510;2024-02-23T09:24:42;7.50;;;1.17;;
26277;SDS011;14000;52.056;8.510;2024-02-23T09:27:08;7.97;;;1.50;;
26277;SDS011;14000;52.056;8.510;2024-02-23T09:29:34;8.73;;;1.37;;
26277;SDS011;14000;52.056;8.510;2024-02-23T09:32:00;6.97;;;1.20;;
26277;SDS011;14000;52.056;8.510;2024-02-23T09:34:26;10.00;;;1.83;;
26277;SDS011;14000;52.056;8.510;2024-02-23T09:36:51;10.47;;;1.50;;
26277;SDS011;14000;52.056;8.510;2024-02-23T09:39:17;6.53;;;1.47;;
26277;SDS011;14000;52.056;8.510;2024-02-23T09:41:43;13.13;;;3.00;;
26277;SDS011;14000;52.056;8.510;2024-02-23T09:44:09;6.03;;;1.20;;
26277;SDS011;14000;52.056;8.510;2024-02-23T09:46:38;8.40;;;1.80;;
26277;SDS011;14000;52.056;8.510;2024-02-23T09:49:07;9.30;;;2.23;;
26277;SDS011;14000;52.056;8.510;2024-02-23T09:51:36;8.70;;;1.40;;
26277;SDS011;14000;52.056;8.510;2024-02-23T09:54:02;4.60;;;1.10;;
26277;SDS011;14000;52.056;8.510;2024-02-23T09:56:28;7.47;;;1.37;;
26277;SDS011;14000;52.056;8.510;2024-02-23T09:58:59;7.43;;;1.10;;
26277;SDS011;14000;52.056;8.510;2024-02-23T10:01:30;6.67;;;1.23;;
26277;SDS011;14000;52.056;8.510;2024-02-23T10:03:58;5.63;;;1.10;;
26277;SDS011;14000;52.056;8.510;2024-02-23T10:06:26;6.43;;;1.10;;
26277;SDS011;14000;52.056;8.510;2024-02-23T10:08:52;8.97;;;1.30;;
26277;SDS011;14000;52.056;8.510;2024-02-23T10:11:21;10.30;;;1.30;;
26277;SDS011;14000;52.056;8.510;2024-02-23T10:13:47;12.20;;;1.70;;
26277;SDS011;14000;52.056;8.510;2024-02-23T10:16:17;9.57;;;1.50;;
26277;SDS011;14000;52.056;8.510;2024-02-23T10:18:45;6.03;;;1.10;;
26277;SDS011;14000;52.056;8.510;2024-02-23T10:21:13;11.83;;;1.87;;
26277;SDS011;14000;52.056;8.510;2024-02-23T10:23:39;9.10;;;1.77;;
26277;SDS011;14000;52.056;8.510;2024-02-23T10:26:06;7.33;;;1.50;;
26277;SDS011;14000;52.056;8.510;2024-02-23T10:28:33;5.83;;;1.20;;
26277;SDS011;14000;52.056;8.510;2024-02-23T10:31:00;10.07;;;1.20;;
26277;SDS011;14000;52.056;8.510;2024-02-23T10:33:26;8.97;;;1.17;;
26277;SDS011;14000;52.056;8.510;2024-02-23T10:35:54;4.93;;;1.00;;
26277;SDS011;14000;52.056;8.510;2024-02-23T10:38:24;7.97;;;1.40;;
26277;SDS011;14000;52.056;8.510;2024-02-23T10:40:52;7.70;;;1.10;;
26277;SDS011;14000;52.056;8.510;2024-02-23T10:43:21;9.70;;;1.30;;
26277;SDS011;14000;52.056;8.510;2024-02-23T10:45:58;6.23;;;1.20;;
26277;SDS011;14000;52.056;8.510;2024-02-23T10:48:27;8.07;;;1.20;;
26277;SDS011;14000;52.056;8.510;2024-02-23T10:50:54;7.63;;;1.37;;
26277;SDS011;14000;52.056;8.510;2024-02-23T10:53:21;5.83;;;0.93;;
26277;SDS011;14000;52.056;8.510;2024-02-23T10:55:51;8.53;;;1.20;;
26277;SDS011;14000;52.056;8.510;2024-02-23T10:58:22;7.60;;;1.00;;
26277;SDS011;14000;52.056;8.510;2024-02-23T11:00:47;5.57;;;1.10;;
26277;SDS011;14000;52.056;8.510;2024-02-23T11:03:13;9.13;;;1.43;;
26277;SDS011;14000;52.056;8.510;2024-02-23T11:05:40;10.67;;;1.43;;
26277;SDS011;14000;52.056;8.510;2024-02-23T11:08:06;9.83;;;2.13;;
26277;SDS011;14000;52.056;8.510;2024-02-23T11:10:41;8.37;;;1.80;;
26277;SDS011;14000;52.056;8.510;2024-02-23T11:13:07;9.57;;;1.40;;
26277;SDS011;14000;52.056;8.510;2024-02-23T11:15:33;7.47;;;1.20;;
26277;SDS011;14000;52.056;8.510;2024-02-23T11:18:20;7.30;;;1.13;;
26277;SDS011;14000;52.056;8.510;2024-02-23T11:20:56;6.57;;;1.03;;
26277;SDS011;14000;52.056;8.510;2024-02-23T11:23:24;8.23;;;1.40;;
26277;SDS011;14000;52.056;8.510;2024-02-23T11:28:28;8.27;;;1.20;;
26277;SDS011;14000;52.056;8.510;2024-02-23T11:30:53;7.80;;;1.60;;
26277;SDS011;14000;52.056;8.510;2024-02-23T11:33:26;8.83;;;1.20;;
26277;SDS011;14000;52.056;8.510;2024-02-23T11:35:52;9.00;;;1.10;;
26277;SDS011;14000;52.056;8.510;2024-02-23T11:38:17;6.37;;;1.10;;
26277;SDS011;14000;52.056;8.510;2024-02-23T11:40:46;11.67;;;1.57;;
26277;SDS011;14000;52.056;8.510;2024-02-23T11:43:17;6.67;;;1.20;;
26277;SDS011;14000;52.056;8.510;2024-02-23T11:45:46;13.77;;;3.27;;
26277;SDS011;14000;52.056;8.510;2024-02-23T11:48:12;13.10;;;2.53;;
26277;SDS011;14000;52.056;8.510;2024-02-23T11:50:37;7.77;;;1.30;;
26277;SDS011;14000;52.056;8.510;2024-02-23T11:53:03;7.43;;;1.13;;
26277;SDS011;14000;52.056;8.510;2024-02-23T11:55:29;6.63;;;1.50;;
26277;SDS011;14000;52.056;8.510;2024-02-23T11:57:55;5.50;;;1.10;;
26277;SDS011;14000;52.056;8.510;2024-02-23T12:00:21;9.87;;;1.40;;
26277;SDS011;14000;52.056;8.510;2024-02-23T12:02:48;8.27;;;1.10;;
26277;SDS011;14000;52.056;8.510;2024-02-23T12:05:15;10.43;;;1.63;;
26277;SDS011;14000;52.056;8.510;2024-02-23T12:07:41;7.27;;;1.30;;
26277;SDS011;14000;52.056;8.510;2024-02-23T12:10:07;6.67;;;1.10;;
26277;SDS011;14000;52.056;8.510;2024-02-23T12:12:33;8.20;;;1.13;;
26277;SDS011;14000;52.056;8.510;2024-02-23T12:14:59;6.03;;;1.10;;
26277;SDS011;14000;52.056;8.510;2024-02-23T12:17:25;5.90;;;1.00;;
26277;SDS011;14000;52.056;8.510;2024-02-23T12:20:00;5.17;;;1.10;;
26277;SDS011;14000;52.056;8.510;2024-02-23T12:22:27;6.70;;;1.20;;
26277;SDS011;14000;52.056;8.510;2024-02-23T12:24:52;9.23;;;1.40;;
26277;SDS011;14000;52.056;8.510;2024-02-23T12:27:18;7.70;;;1.23;;
26277;SDS011;14000;52.056;8.510;2024-02-23T12:29:54;6.23;;;1.10;;
26277;SDS011;14000;52.056;8.510;2024-02-23T12:32:20;13.23;;;1.40;;
26277;SDS011;14000;52.056;8.510;2024-02-23T12:34:46;11.63;;;2.63;;
26277;SDS011;14000;52.056;8.510;2024-02-23T12:37:16;7.80;;;1.60;;
26277;SDS011;14000;52.056;8.510;2024-02-23T12:39:42;6.87;;;1.40;;
26277;SDS011;14000;52.056;8.510;2024-02-23T12:42:11;8.27;;;1.80;;
26277;SDS011;14000;52.056;8.510;2024-02-23T12:44:36;6.70;;;1.20;;
26277;SDS011;14000;52.056;8.510;2024-02-23T12:47:02;6.47;;;1.23;;
26277;SDS011;14000;52.056;8.510;2024-02-23T12:49:28;9.03;;;1.37;;
26277;SDS011;14000;52.056;8.510;2024-02-23T12:51:54;7.23;;;1.00;;
26277;SDS011;14000;52.056;8.510;2024-02-23T12:54:20;8.27;;;1.47;;
26277;SDS011;14000;52.056;8.510;2024-02-23T12:56:46;5.60;;;1.10;;
26277;SDS011;14000;52.056;8.510;2024-02-23T12:59:11;6.73;;;1.10;;
26277;SDS011;14000;52.056;8.510;2024-02-23T13:01:37;5.97;;;1.07;;
26277;SDS011;14000;52.056;8.510;2024-02-23T13:04:04;9.87;;;2.43;;
26277;SDS011;14000;52.056;8.510;2024-02-23T13:06:38;9.27;;;1.50;;
26277;SDS011;14000;52.056;8.510;2024-02-23T13:09:04;5.23;;;1.30;;
26277;SDS011;14000;52.056;8.510;2024-02-23T13:11:33;7.53;;;1.17;;
26277;SDS011;14000;52.056;8.510;2024-02-23T13:15:00;7.33;;;1.00;;
26277;SDS011;14000;52.056;8.510;2024-02-23T13:16:58;7.27;;;1.30;;
26277;SDS011;14000;52.056;8.510;2024-02-23T13:19:23;8.73;;;1.27;;
26277;SDS011;14000;52.056;8.510;2024-02-23T13:21:49;5.83;;;1.10;;
26277;SDS011;14000;52.056;8.510;2024-02-23T13:24:15;4.20;;;0.93;;
26277;SDS011;14000;52.056;8.510;2024-02-23T13:26:40;6.20;;;1.10;;
26277;SDS011;14000;52.056;8.510;2024-02-23T13:29:06;5.83;;;1.00;;
26277;SDS011;14000;52.056;8.510;2024-02-23T13:31:32;4.47;;;0.80;;
26277;SDS011;14000;52.056;8.510;2024-02-23T13:33:57;4.63;;;0.80;;
26277;SDS011;14000;52.056;8.510;2024-02-23T13:36:23;3.73;;;0.87;;
26277;SDS011;14000;52.056;8.510;2024-02-23T13:38:49;6.50;;;1.60;;
26277;SDS011;14000;52.056;8.510;2024-02-23T13:41:16;7.60;;;1.07;;
26277;SDS011;14000;52.056;8.510;2024-02-23T13:43:42;7.20;;;1.17;;
26277;SDS011;14000;52.056;8.510;2024-02-23T13:46:08;8.47;;;1.67;;
26277;SDS011;14000;52.056;8.510;2024-02-23T13:48:39;7.40;;;1.30;;
26277;SDS011;14000;52.056;8.510;2024-02-23T13:51:05;6.07;;;1.00;;
26277;SDS011;14000;52.056;8.510;2024-02-23T13:53:31;7.30;;;1.00;;
26277;SDS011;14000;52.056;8.510;2024-02-23T13:55:58;5.70;;;1.07;;
26277;SDS011;14000;52.056;8.510;2024-02-23T13:58:25;6.33;;;1.10;;
26277;SDS011;14000;52.056;8.510;2024-02-23T14:00:52;8.60;;;1.20;;
26277;SDS011;14000;52.056;8.510;2024-02-23T14:03:18;9.17;;;1.17;;
26277;SDS011;14000;52.056;8.510;2024-02-23T14:05:44;5.80;;;1.23;;
26277;SDS011;14000;52.056;8.510;2024-02-23T14:08:11;4.57;;;1.03;;
26277;SDS011;14000;52.056;8.510;2024-02-23T14:10:36;7.67;;;1.40;;
26277;SDS011;14000;52.056;8.510;2024-02-23T14:13:02;5.83;;;1.33;;
26277;SDS011;14000;52.056;8.510;2024-02-23T14:15:28;5.97;;;1.50;;
26277;SDS011;14000;52.056;8.510;2024-02-23T14:17:54;7.37;;;1.10;;
26277;SDS011;14000;52.056;8.510;2024-02-23T14:20:19;6.93;;;1.10;;
26277;SDS011;14000;52.056;8.510;2024-02-23T14:22:45;6.23;;;1.00;;
26277;SDS011;14000;52.056;8.510;2024-02-23T14:25:11;6.67;;;1.37;;
26277;SDS011;14000;52.056;8.510;2024-02-23T14:27:37;10.63;;;1.60;;
26277;SDS011;14000;52.056;8.510;2024-02-23T14:30:03;5.60;;;1.10;;
26277;SDS011;14000;52.056;8.510;2024-02-23T14:32:29;6.67;;;1.23;;
26277;SDS011;14000;52.056;8.510;2024-02-23T14:34:56;5.47;;;1.30;;
26277;SDS011;14000;52.056;8.510;2024-02-23T14:37:22;6.50;;;1.20;;
26277;SDS011;14000;52.056;8.510;2024-02-23T14:39:48;7.40;;;1.20;;
26277;SDS011;14000;52.056;8.510;2024-02-23T14:42:14;6.83;;;1.03;;